Time;durP1;ratioP1;P1;durP2;ratioP2;P2;SDS_P1;SDS_P2;PMS_P1;PMS_P2;Temp;Humidity;BMP_temperature;BMP_pressure;BME280_temperature;BME280_humidity;BME280_pressure;Samples;Min_cycle;Max_cycle;Signal;HPM_P1;HPM_P2
2024/01/12 00:00:09;;;;;;;;;32.00;26.00;;;;;-143.90;100.00;77515.25;4803623;29;102513;-68
2024/01/12 00:02:35;;;;;;;;;30.67;24.33;;;;;-143.90;100.00;77509.06;4805939;29;104322;-70
2024/01/12 00:05:02;;;;;;;;;40.67;31.33;;;;;-143.90;100.00;77519.41;4791612;29;102591;-70
2024/01/12 00:07:29;;;;;;;;;44.00;25.67;;;;;-143.90;100.00;77515.25;4806496;29;102319;-71
2024/01/12 00:09:56;;;;;;;;;41.33;32.67;;;;;-143.90;100.00;77533.88;4814161;29;102048;-69
2024/01/12 00:12:22;;;;;;;;;45.33;32.00;;;;;-143.90;100.00;77519.41;4801557;29;104225;-69
2024/01/12 00:14:49;;;;;;;;;47.33;36.33;;;;;-143.90;100.00;77521.47;4776393;29;104200;-69
2024/01/12 00:17:18;;;;;;;;;31.00;24.00;;;;;-143.90;100.00;77521.47;4807088;29;102077;-69
2024/01/12 00:19:48;;;;;;;;;33.00;29.33;;;;;-143.90;100.00;77513.19;4809551;29;102623;-69
2024/01/12 00:22:14;;;;;;;;;37.33;25.33;;;;;-143.90;100.00;77519.41;4805711;29;104612;-70
2024/01/12 00:24:41;;;;;;;;;31.00;25.00;;;;;-143.90;100.00;77517.34;4802843;29;102457;-70
2024/01/12 00:27:08;;;;;;;;;28.00;20.00;;;;;-143.90;100.00;77511.13;4798139;29;102768;-70
2024/01/12 00:29:36;;;;;;;;;34.33;31.00;;;;;-143.90;100.00;77519.41;4811665;29;102360;-69
2024/01/12 00:32:05;;;;;;;;;39.33;30.67;;;;;-143.90;100.00;77515.25;4799761;29;104060;-69
2024/01/12 00:34:32;;;;;;;;;40.67;31.00;;;;;-143.90;100.00;77531.81;4804001;29;102979;-70
2024/01/12 00:37:02;;;;;;;;;46.00;26.67;;;;;-143.90;100.00;77525.59;4796578;29;102168;-70
2024/01/12 00:39:28;;;;;;;;;31.33;28.67;;;;;-143.90;100.00;77517.34;4807687;29;104165;-70
2024/01/12 00:41:55;;;;;;;;;37.67;30.33;;;;;-143.90;100.00;77527.69;4799017;29;109231;-69
2024/01/12 00:44:22;;;;;;;;;33.33;31.67;;;;;-143.90;100.00;77527.69;4787008;29;102389;-69
2024/01/12 00:46:51;;;;;;;;;29.67;26.33;;;;;-143.90;100.00;77533.88;4793668;29;102749;-69
2024/01/12 00:49:18;;;;;;;;;25.33;17.00;;;;;-143.90;100.00;77513.19;4785805;29;107813;-69
2024/01/12 00:51:46;;;;;;;;;42.00;31.67;;;;;-143.90;100.00;77533.88;4802082;29;104020;-69
2024/01/12 00:54:13;;;;;;;;;44.00;29.00;;;;;-143.90;100.00;77538.03;4800436;29;102579;-69
2024/01/12 00:56:40;;;;;;;;;35.33;31.33;;;;;-143.90;100.00;77542.16;4799099;29;102660;-69
2024/01/12 00:59:07;;;;;;;;;33.33;27.67;;;;;-143.90;100.00;77550.44;4791133;29;102671;-69
2024/01/12 01:01:34;;;;;;;;;38.67;31.33;;;;;-143.90;100.00;77538.03;4797242;29;104105;-69
2024/01/12 01:04:01;;;;;;;;;35.33;29.33;;;;;-143.90;100.00;77538.03;4792823;29;104331;-70
2024/01/12 01:06:28;;;;;;;;;44.67;30.00;;;;;-143.90;100.00;77546.28;4801681;29;102874;-70
2024/01/12 01:08:55;;;;;;;;;40.67;30.67;;;;;-143.90;100.00;77540.09;4792435;29;103154;-70
2024/01/12 01:11:22;;;;;;;;;29.67;27.67;;;;;-143.90;100.00;77540.09;4803783;29;103839;-69
2024/01/12 01:13:49;;;;;;;;;36.00;27.33;;;;;-143.90;100.00;77540.09;4801665;29;102181;-68
2024/01/12 01:16:15;;;;;;;;;35.67;27.33;;;;;-143.90;100.00;77538.03;4803175;29;102445;-69
2024/01/12 01:18:44;;;;;;;;;30.00;25.33;;;;;-143.90;100.00;77525.59;4807606;29;103183;-70
2024/01/12 01:21:11;;;;;;;;;32.67;29.00;;;;;-143.90;100.00;77535.94;4792040;29;104207;-69
2024/01/12 01:23:37;;;;;;;;;32.00;27.67;;;;;-143.90;100.00;77531.81;4799821;29;102627;-70
2024/01/12 01:26:04;;;;;;;;;26.67;21.33;;;;;-143.90;100.00;77519.41;4807550;29;102300;-70
2024/01/12 01:28:30;;;;;;;;;33.00;22.00;;;;;-143.90;100.00;77515.25;4809770;29;102697;-70
2024/01/12 01:30:57;;;;;;;;;29.67;22.00;;;;;-143.90;100.00;77498.72;4799039;29;104233;-69
2024/01/12 01:33:24;;;;;;;;;22.00;19.33;;;;;-143.90;100.00;77500.78;4794596;29;104089;-70
2024/01/12 01:35:51;;;;;;;;;24.33;16.67;;;;;-143.90;100.00;77496.66;4807317;29;102003;-69
2024/01/12 01:38:17;;;;;;;;;20.67;15.33;;;;;-143.90;100.00;77486.31;4811047;29;102387;-69
2024/01/12 01:40:45;;;;;;;;;14.00;11.00;;;;;-143.90;100.00;77475.97;4802256;29;104615;-68
2024/01/12 01:43:12;;;;;;;;;7.33;7.33;;;;;-143.90;100.00;77480.09;4795400;29;102774;-70
2024/01/12 01:45:38;;;;;;;;;10.00;8.33;;;;;-143.90;100.00;77480.09;4801495;29;102720;-69
2024/01/12 01:48:06;;;;;;;;;13.67;8.67;;;;;-143.90;100.00;77488.38;4803279;29;102848;-69
2024/01/12 01:50:34;;;;;;;;;21.00;15.67;;;;;-143.90;100.00;77482.16;4807300;29;104160;-69
2024/01/12 01:53:02;;;;;;;;;12.33;10.67;;;;;-143.90;100.00;77480.09;4793120;29;104288;-70
2024/01/12 01:55:30;;;;;;;;;14.67;10.67;;;;;-143.90;100.00;77478.03;4801088;29;102219;-72
2024/01/12 01:57:59;;;;;;;;;14.00;12.33;;;;;-143.90;100.00;77482.16;4810118;29;102290;-70
2024/01/12 02:00:27;;;;;;;;;16.00;13.00;;;;;-143.90;100.00;77473.91;4808895;29;108970;-70
2024/01/12 02:02:54;;;;;;;;;13.33;12.33;;;;;-143.90;100.00;77471.81;4795943;29;104006;-68
2024/01/12 02:05:22;;;;;;;;;17.33;15.67;;;;;-143.90;100.00;77480.09;4800762;29;104048;-69
2024/01/12 02:07:48;;;;;;;;;19.33;15.67;;;;;-143.90;100.00;77473.91;4808361;29;104794;-69
2024/01/12 02:10:15;;;;;;;;;15.33;12.33;;;;;-143.90;100.00;77480.09;4803121;29;104207;-69
2024/01/12 02:12:42;;;;;;;;;28.33;26.33;;;;;-143.90;100.00;77509.06;4816504;29;102490;-69
2024/01/12 02:15:10;;;;;;;;;32.00;27.00;;;;;-143.90;100.00;77507.00;4801296;29;102680;-70
2024/01/12 02:17:37;;;;;;;;;33.00;23.67;;;;;-143.90;100.00;77480.09;4787419;29;104217;-69
2024/01/12 02:20:05;;;;;;;;;20.67;18.33;;;;;-143.90;100.00;77471.81;4807879;29;104226;-70
2024/01/12 02:22:32;;;;;;;;;22.00;17.67;;;;;-143.90;100.00;77463.56;4809105;29;104872;-71
2024/01/12 02:25:01;;;;;;;;;18.33;16.67;;;;;-143.90;100.00;77463.56;4795422;29;102233;-69
2024/01/12 02:27:28;;;;;;;;;23.00;19.00;;;;;-143.90;100.00;77467.69;4805552;29;102192;-70
2024/01/12 02:29:57;;;;;;;;;17.00;14.67;;;;;-143.90;100.00;77471.81;4812698;29;104784;-69
2024/01/12 02:32:23;;;;;;;;;20.00;15.67;;;;;-143.90;100.00;77465.63;4807146;29;102382;-71
2024/01/12 02:34:51;;;;;;;;;16.67;13.67;;;;;-143.90;100.00;77467.69;4798959;29;102472;-70
2024/01/12 02:37:17;;;;;;;;;22.33;17.00;;;;;-143.90;100.00;77480.09;4811241;29;102735;-69
2024/01/12 02:39:45;;;;;;;;;33.33;21.33;;;;;-143.90;100.00;77480.09;4811147;29;104270;-70
2024/01/12 02:42:12;;;;;;;;;41.00;34.33;;;;;-143.90;100.00;77511.13;4807456;29;102574;-70
2024/01/12 02:44:38;;;;;;;;;33.33;28.67;;;;;-143.90;100.00;77507.00;4805007;29;102647;-70
2024/01/12 02:47:06;;;;;;;;;33.33;26.00;;;;;-143.90;100.00;77502.84;4796090;29;102261;-69
2024/01/12 02:49:33;;;;;;;;;26.67;25.00;;;;;-143.90;100.00;77500.78;4802866;29;103994;-70
2024/01/12 02:51:59;;;;;;;;;36.00;29.33;;;;;-143.90;100.00;77502.84;4803589;29;105092;-70
2024/01/12 02:54:26;;;;;;;;;47.00;35.00;;;;;-143.90;100.00;77513.19;4806127;29;102407;-69
2024/01/12 02:56:53;;;;;;;;;55.67;37.00;;;;;-143.90;100.00;77519.41;4793356;29;102616;-70
2024/01/12 02:59:19;;;;;;;;;47.00;32.67;;;;;-143.90;100.00;77515.25;4805000;29;104483;-70
2024/01/12 03:01:46;;;;;;;;;51.67;40.33;;;;;-143.90;100.00;77525.59;4787536;29;102637;-70
2024/01/12 03:04:13;;;;;;;;;44.00;32.67;;;;;-143.90;100.00;77513.19;4783876;29;102021;-69
2024/01/12 03:06:40;;;;;;;;;46.67;35.00;;;;;-143.90;100.00;77509.06;4809261;29;102439;-69
2024/01/12 03:09:08;;;;;;;;;37.33;29.67;;;;;-143.90;100.00;77519.41;4793593;29;104471;-70
2024/01/12 03:11:34;;;;;;;;;38.00;29.67;;;;;-143.90;100.00;77511.13;4805830;29;102667;-71
2024/01/12 03:14:01;;;;;;;;;35.67;27.67;;;;;-143.90;100.00;77488.38;4806834;29;102431;-70
2024/01/12 03:16:27;;;;;;;;;29.67;23.00;;;;;-143.90;100.00;77496.66;4804394;29;102679;-70
2024/01/12 03:18:54;;;;;;;;;42.67;25.33;;;;;-143.90;100.00;77496.66;4785726;29;104178;-70
2024/01/12 03:21:22;;;;;;;;;43.67;34.67;;;;;-143.90;100.00;77513.19;4799740;29;103433;-70
2024/01/12 03:23:48;;;;;;;;;41.67;35.33;;;;;-143.90;100.00;77504.94;4801937;29;101920;-70
2024/01/12 03:26:15;;;;;;;;;41.33;32.33;;;;;-143.90;100.00;77504.94;4808899;28;102271;-70
2024/01/12 03:28:42;;;;;;;;;42.67;33.33;;;;;-143.90;100.00;77509.06;4803711;29;104176;-70
2024/01/12 03:31:09;;;;;;;;;60.67;42.67;;;;;-143.90;100.00;77511.13;4797506;29;102418;-70
2024/01/12 03:33:36;;;;;;;;;58.33;42.00;;;;;-143.90;100.00;77509.06;4804576;29;102861;-69
2024/01/12 03:36:07;;;;;;;;;46.67;33.00;;;;;-143.90;100.00;77496.66;4802883;29;102758;-70
2024/01/12 03:38:34;;;;;;;;;36.00;31.33;;;;;-143.90;100.00;77488.38;4805608;29;108857;-71
2024/01/12 03:41:04;;;;;;;;;32.67;25.00;;;;;-143.90;100.00;77484.25;4794598;29;102992;-69
2024/01/12 03:43:31;;;;;;;;;35.00;29.00;;;;;-143.90;100.00;77484.25;4804378;29;102206;-69
2024/01/12 03:45:57;;;;;;;;;37.67;33.33;;;;;-143.90;100.00;77492.50;4804622;29;103738;-70
2024/01/12 03:48:24;;;;;;;;;32.00;27.00;;;;;-143.90;100.00;77484.25;4805730;29;104228;-70
2024/01/12 03:50:51;;;;;;;;;43.00;36.67;;;;;-143.90;100.00;77500.78;4784743;29;102634;-70
2024/01/12 03:53:18;;;;;;;;;32.00;29.00;;;;;-143.90;100.00;77496.66;4785063;29;102356;-70
2024/01/12 03:55:45;;;;;;;;;29.33;27.33;;;;;-143.90;100.00;77482.16;4795662;29;103633;-70
2024/01/12 03:58:11;;;;;;;;;52.00;42.33;;;;;-143.90;100.00;77513.19;4803394;29;104400;-70
2024/01/12 04:00:38;;;;;;;;;51.00;35.00;;;;;-143.90;100.00;77504.94;4798104;29;102662;-70
2024/01/12 04:03:05;;;;;;;;;35.33;28.67;;;;;-143.90;100.00;77500.78;4793593;29;104359;-70
2024/01/12 04:05:31;;;;;;;;;28.00;27.00;;;;;-143.90;100.00;77496.66;4806461;29;102563;-71
2024/01/12 04:07:58;;;;;;;;;44.67;38.67;;;;;-143.90;100.00;77509.06;4803593;29;104032;-70
2024/01/12 04:10:25;;;;;;;;;38.33;26.00;;;;;-143.90;100.00;77492.50;4801787;29;103275;-70
2024/01/12 04:12:51;;;;;;;;;44.00;40.00;;;;;-143.90;100.00;77498.72;4791011;29;102686;-71
2024/01/12 04:15:18;;;;;;;;;48.33;38.33;;;;;-143.90;100.00;77504.94;4806645;29;102812;-70
2024/01/12 04:17:45;;;;;;;;;40.00;36.33;;;;;-143.90;100.00;77502.84;4814489;29;104271;-71
2024/01/12 04:20:11;;;;;;;;;37.00;30.33;;;;;-143.90;100.00;77500.78;4806633;29;102808;-70
2024/01/12 04:22:38;;;;;;;;;37.00;34.33;;;;;-143.90;100.00;77498.72;4803449;29;102887;-70
2024/01/12 04:25:05;;;;;;;;;36.00;26.67;;;;;-143.90;100.00;77484.25;4806989;29;102283;-71
2024/01/12 04:27:32;;;;;;;;;46.33;38.00;;;;;-143.90;100.00;77496.66;4810544;29;108785;-70
2024/01/12 04:29:58;;;;;;;;;34.67;30.00;;;;;-143.90;100.00;77484.25;4807973;29;104610;-71
2024/01/12 04:32:26;;;;;;;;;47.00;34.33;;;;;-143.90;100.00;77496.66;4806505;29;102964;-70
2024/01/12 04:34:53;;;;;;;;;39.00;30.67;;;;;-143.90;100.00;77488.38;4801733;29;102307;-70
2024/01/12 04:37:21;;;;;;;;;49.00;39.33;;;;;-143.90;100.00;77504.94;4808639;29;104002;-71
2024/01/12 04:39:47;;;;;;;;;59.33;39.67;;;;;-143.90;100.00;77492.50;4808192;29;102949;-71
2024/01/12 04:42:14;;;;;;;;;41.33;32.33;;;;;-143.90;100.00;77488.38;4811435;29;102204;-71
2024/01/12 04:44:43;;;;;;;;;35.33;26.00;;;;;-143.90;100.00;77473.91;4809821;29;102024;-71
2024/01/12 04:47:10;;;;;;;;;32.67;26.00;;;;;-143.90;100.00;77480.09;4796709;29;104159;-71
2024/01/12 04:49:37;;;;;;;;;25.33;19.33;;;;;-143.90;100.00;77473.91;4810163;29;102687;-70
2024/01/12 04:52:04;;;;;;;;;38.00;26.00;;;;;-143.90;100.00;77467.69;4810586;29;102455;-70
2024/01/12 04:54:30;;;;;;;;;38.00;29.00;;;;;-143.90;100.00;77488.38;4791908;29;104643;-71
2024/01/12 04:56:57;;;;;;;;;40.33;34.67;;;;;-143.90;100.00;77484.25;4796373;29;104068;-70
2024/01/12 04:59:24;;;;;;;;;40.00;32.00;;;;;-143.90;100.00;77484.25;4806076;29;103638;-70
2024/01/12 05:01:51;;;;;;;;;39.33;33.67;;;;;-143.90;100.00;77488.38;4807481;29;102441;-72
2024/01/12 05:04:18;;;;;;;;;41.00;36.00;;;;;-143.90;100.00;77504.94;4804132;29;102400;-70
2024/01/12 05:06:44;;;;;;;;;37.33;33.00;;;;;-143.90;100.00;77509.06;4797424;29;104071;-71
2024/01/12 05:09:11;;;;;;;;;48.00;35.00;;;;;-143.90;100.00;77509.06;4798924;29;102130;-71
2024/01/12 05:11:38;;;;;;;;;45.00;32.00;;;;;-143.90;100.00;77519.41;4787936;29;102650;-70
2024/01/12 05:14:05;;;;;;;;;41.33;33.00;;;;;-143.90;100.00;77513.19;4807535;29;102559;-71
2024/01/12 05:16:32;;;;;;;;;36.00;28.33;;;;;-143.90;100.00;77511.13;4804161;29;108696;-70
2024/01/12 05:18:59;;;;;;;;;41.33;30.00;;;;;-143.90;100.00;77517.34;4798546;29;105030;-71
2024/01/12 05:21:26;;;;;;;;;28.67;24.00;;;;;-143.90;100.00;77515.25;4803526;29;102489;-70
2024/01/12 05:23:52;;;;;;;;;40.33;28.67;;;;;-143.90;100.00;77517.34;4804870;29;102427;-71
2024/01/12 05:26:19;;;;;;;;;34.33;25.00;;;;;-143.90;100.00;77515.25;4807689;29;104115;-71
2024/01/12 05:28:46;;;;;;;;;27.33;22.67;;;;;-143.90;100.00;77515.25;4799273;29;102544;-70
2024/01/12 05:31:14;;;;;;;;;24.33;22.33;;;;;-143.90;100.00;77515.25;4805893;29;102328;-72
2024/01/12 05:33:41;;;;;;;;;35.33;26.00;;;;;-143.90;100.00;77527.69;4810628;29;102418;-73
2024/01/12 05:36:08;;;;;;;;;31.67;28.00;;;;;-143.90;100.00;77529.75;4808538;29;103608;-73
2024/01/12 05:38:35;;;;;;;;;30.67;27.33;;;;;-143.90;100.00;77546.28;4808950;29;102476;-72
2024/01/12 05:41:01;;;;;;;;;43.67;33.00;;;;;-143.90;100.00;77562.84;4800032;29;103055;-72
2024/01/12 05:43:28;;;;;;;;;38.33;28.33;;;;;-143.90;100.00;77554.56;4812497;29;102446;-73
2024/01/12 05:45:55;;;;;;;;;32.67;23.33;;;;;-143.90;100.00;77546.28;4807716;29;104375;-72
2024/01/12 05:48:24;;;;;;;;;31.33;28.67;;;;;-143.90;100.00;77554.56;4807990;29;102673;-72
2024/01/12 05:50:51;;;;;;;;;28.00;22.67;;;;;-143.90;100.00;77562.84;4797696;29;102533;-72
2024/01/12 05:53:22;;;;;;;;;35.67;32.33;;;;;-143.90;100.00;77573.19;4808004;29;102824;-71
2024/01/12 05:55:49;;;;;;;;;36.33;30.33;;;;;-143.90;100.00;77569.06;4807032;29;104033;-72
2024/01/12 05:58:16;;;;;;;;;52.33;39.33;;;;;-143.90;100.00;77579.41;4810065;29;107674;-73
2024/01/12 06:00:43;;;;;;;;;45.33;36.67;;;;;-143.90;100.00;77583.53;4807949;29;102591;-72
2024/01/12 06:03:10;;;;;;;;;62.67;41.67;;;;;-143.90;100.00;77604.22;4798755;29;104192;-72
2024/01/12 06:05:37;;;;;;;;;41.00;32.33;;;;;-143.90;100.00;77595.94;4809440;29;103983;-72
2024/01/12 06:08:04;;;;;;;;;47.67;31.33;;;;;-143.90;100.00;77608.34;4816612;29;102357;-72
2024/01/12 06:10:31;;;;;;;;;42.00;30.33;;;;;-143.90;100.00;77622.84;4810757;29;102416;-73
2024/01/12 06:12:57;;;;;;;;;39.67;35.00;;;;;-143.90;100.00;77626.97;4807549;29;102464;-72
2024/01/12 06:15:24;;;;;;;;;30.33;26.00;;;;;-143.90;100.00;77608.34;4811659;29;104040;-72
2024/01/12 06:17:50;;;;;;;;;40.33;28.67;;;;;-143.90;100.00;77612.50;4816273;29;102346;-72
2024/01/12 06:20:17;;;;;;;;;39.67;34.33;;;;;-143.90;100.00;77624.91;4808097;29;102714;-72
2024/01/12 06:22:44;;;;;;;;;40.00;28.00;;;;;-143.90;100.00;77616.63;4810239;29;102777;-72
2024/01/12 06:25:11;;;;;;;;;46.33;35.00;;;;;-143.90;100.00;77629.03;4807137;29;103782;-73
2024/01/12 06:27:38;;;;;;;;;34.33;29.00;;;;;-143.90;100.00;77629.03;4817001;29;102361;-72
2024/01/12 06:30:05;;;;;;;;;30.33;25.33;;;;;-143.90;100.00;77631.13;4817064;29;105207;-71
2024/01/12 06:32:32;;;;;;;;;28.00;24.33;;;;;-143.90;100.00;77633.19;4814378;29;105066;-72
2024/01/12 06:34:59;;;;;;;;;25.00;22.67;;;;;-143.90;100.00;77618.69;4804524;29;104281;-71
2024/01/12 06:37:25;;;;;;;;;30.00;23.67;;;;;-143.90;100.00;77624.91;4805779;29;102522;-72
2024/01/12 06:39:52;;;;;;;;;24.67;19.33;;;;;-143.90;100.00;77626.97;4813941;29;102487;-72
2024/01/12 06:42:19;;;;;;;;;29.33;20.67;;;;;-143.90;100.00;77624.91;4812194;29;103198;-71
2024/01/12 06:44:45;;;;;;;;;26.67;19.67;;;;;-143.90;100.00;77624.91;4808286;29;104224;-72
2024/01/12 06:47:12;;;;;;;;;25.00;17.33;;;;;-143.90;100.00;77631.13;4805604;29;102823;-72
2024/01/12 06:49:45;;;;;;;;;16.33;14.33;;;;;-143.90;100.00;77624.91;4808240;28;102337;-72
2024/01/12 06:52:13;;;;;;;;;19.33;15.33;;;;;-143.90;100.00;77620.78;4817245;29;102778;-71
2024/01/12 06:54:44;;;;;;;;;17.00;14.33;;;;;-143.90;100.00;77616.63;4806316;29;104214;-71
2024/01/12 06:57:10;;;;;;;;;11.67;10.00;;;;;-143.90;100.00;77608.34;4803774;29;102474;-71
2024/01/12 06:59:37;;;;;;;;;15.00;9.67;;;;;-143.90;100.00;77595.94;4813115;29;102335;-71
2024/01/12 07:02:05;;;;;;;;;15.00;11.00;;;;;-143.90;100.00;77602.16;4813495;29;102539;-72
2024/01/12 07:04:32;;;;;;;;;12.33;11.00;;;;;-143.90;100.00;77587.66;4814478;29;108917;-71
2024/01/12 07:06:59;;;;;;;;;24.33;18.33;;;;;-143.90;100.00;77608.34;4802584;29;105078;-71
2024/01/12 07:09:25;;;;;;;;;16.00;13.00;;;;;-143.90;100.00;77606.28;4811923;29;103653;-71
2024/01/12 07:11:53;;;;;;;;;16.33;13.67;;;;;-143.90;100.00;77600.09;4811334;29;102837;-71
2024/01/12 07:14:20;;;;;;;;;16.33;13.00;;;;;-143.90;100.00;77589.75;4810107;29;104110;-72
2024/01/12 07:16:47;;;;;;;;;16.67;13.67;;;;;-143.90;100.00;77583.53;4803530;29;102461;-72
2024/01/12 07:19:14;;;;;;;;;10.33;8.00;;;;;-143.90;100.00;77571.13;4805885;29;102280;-70
2024/01/12 07:21:41;;;;;;;;;11.67;8.00;;;;;-143.90;100.00;77564.91;4791882;29;102036;-71
2024/01/12 07:24:08;;;;;;;;;15.33;7.67;;;;;-143.90;100.00;77556.63;4813125;29;103995;-71
2024/01/12 07:26:35;;;;;;;;;8.00;7.00;;;;;-143.90;100.00;77558.72;4809015;29;102329;-71
2024/01/12 07:29:02;;;;;;;;;10.00;8.00;;;;;-143.90;100.00;77554.56;4803358;29;103616;-72
2024/01/12 07:31:30;;;;;;;;;12.33;9.33;;;;;-143.90;100.00;77558.72;4815838;29;104783;-71
2024/01/12 07:33:56;;;;;;;;;16.67;11.00;;;;;-143.90;100.00;77556.63;4809894;29;104188;-71
2024/01/12 07:36:23;;;;;;;;;10.00;6.33;;;;;-143.90;100.00;77554.56;4810864;29;102866;-71
2024/01/12 07:38:50;;;;;;;;;15.00;11.00;;;;;-143.90;100.00;77554.56;4801904;28;102280;-70
2024/01/12 07:41:16;;;;;;;;;14.00;10.67;;;;;-143.90;100.00;77556.63;4811840;29;103929;-71
2024/01/12 07:43:43;;;;;;;;;10.67;8.00;;;;;-143.90;100.00;77558.72;4810941;29;104242;-71
2024/01/12 07:46:15;;;;;;;;;7.67;5.00;;;;;-143.90;100.00;77558.72;4808681;29;102559;-71
2024/01/12 07:48:42;;;;;;;;;7.00;7.00;;;;;-143.90;100.00;77575.25;4813768;29;102769;-71
2024/01/12 07:51:09;;;;;;;;;15.00;8.00;;;;;-143.90;100.00;77593.88;4801991;29;102477;-71
2024/01/12 07:53:36;;;;;;;;;8.00;8.00;;;;;-143.90;100.00;77606.28;4809207;29;104420;-71
2024/01/12 07:56:03;;;;;;;;;7.00;7.00;;;;;-143.90;100.00;77591.81;4813071;29;102368;-71
2024/01/12 07:58:30;;;;;;;;;10.00;8.00;;;;;-143.90;100.00;77600.09;4810792;29;102157;-71
2024/01/12 08:00:58;;;;;;;;;9.33;8.00;;;;;-143.90;100.00;77602.16;4799093;29;102430;-71
2024/01/12 08:03:25;;;;;;;;;11.00;8.67;;;;;-143.90;100.00;77620.78;4810978;29;104180;-71
2024/01/12 08:05:51;;;;;;;;;10.00;8.00;;;;;-143.90;100.00;77620.78;4810581;29;102800;-72
2024/01/12 08:08:19;;;;;;;;;9.67;8.00;;;;;-143.90;100.00;77604.22;4806873;29;102662;-71
2024/01/12 08:10:46;;;;;;;;;8.00;7.00;;;;;-143.90;100.00;77579.41;4807815;29;102926;-71
2024/01/12 08:13:14;;;;;;;;;8.67;6.33;;;;;-143.90;100.00;77583.53;4801848;28;105284;-70
2024/01/12 08:15:42;;;;;;;;;10.00;8.00;;;;;-143.90;100.00;77577.31;4806966;29;102377;-71
2024/01/12 08:18:08;;;;;;;;;7.00;5.67;;;;;-143.90;100.00;77566.97;4806618;29;102643;-71
2024/01/12 08:20:35;;;;;;;;;7.67;5.00;;;;;-143.90;100.00;77556.63;4804887;29;102172;-71
2024/01/12 08:23:02;;;;;;;;;8.00;7.00;;;;;-143.90;100.00;77554.56;4792453;29;104054;-71
2024/01/12 08:25:28;;;;;;;;;7.00;6.33;;;;;-143.90;100.00;77546.28;4810628;29;102463;-70
2024/01/12 08:27:56;;;;;;;;;9.33;8.00;;;;;-143.90;100.00;77525.59;4808894;29;102341;-70
2024/01/12 08:30:23;;;;;;;;;16.00;12.33;;;;;-143.90;100.00;77515.25;4808251;29;102638;-70
2024/01/12 08:32:50;;;;;;;;;13.67;11.67;;;;;-143.90;100.00;77488.38;4798719;29;103959;-70
2024/01/12 08:35:17;;;;;;;;;14.33;8.00;;;;;-143.90;100.00;77447.00;4814317;29;102744;-71
2024/01/12 08:37:44;;;;;;;;;17.00;13.00;;;;;-143.90;100.00;77442.88;4809997;29;102649;-71
2024/01/12 08:40:11;;;;;;;;;24.67;19.67;;;;;-143.90;100.00;77459.41;4817666;29;102439;-71
2024/01/12 08:42:39;;;;;;;;;28.00;21.67;;;;;-143.90;100.00;77473.91;4814528;29;104299;-71
2024/01/12 08:45:06;;;;;;;;;17.67;15.00;;;;;-143.90;100.00;77455.28;4803624;29;102580;-71
2024/01/12 08:47:33;;;;;;;;;23.00;18.67;;;;;-143.90;100.00;77447.00;4815563;29;105086;-71
2024/01/12 08:50:00;;;;;;;;;23.67;20.00;;;;;-143.90;100.00;77397.34;4816073;29;102630;-71
2024/01/12 08:52:28;;;;;;;;;27.67;25.33;;;;;-143.90;100.00;77426.31;4792523;29;104017;-71
2024/01/12 08:54:55;;;;;;;;;26.33;19.33;;;;;-143.90;100.00;77407.69;4795784;29;102423;-71
2024/01/12 08:57:21;;;;;;;;;30.67;28.67;;;;;-143.90;100.00;77467.69;4798776;29;102577;-71
2024/01/12 08:59:48;;;;;;;;;31.00;25.67;;;;;-143.90;100.00;77465.63;4809355;29;102819;-71
2024/01/12 09:02:15;;;;;;;;;31.33;23.33;;;;;-143.90;100.00;77457.34;4814476;29;104197;-71
2024/01/12 09:04:41;;;;;;;;;26.00;23.33;;;;;-143.90;100.00;77513.19;4807007;29;102374;-72
2024/01/12 09:07:08;;;;;;;;;29.00;22.33;;;;;-143.90;100.00;77504.94;4784186;29;102418;-72
2024/01/12 09:09:35;;;;;;;;;23.33;16.33;;;;;-143.90;100.00;77521.47;4813990;29;102314;-72
2024/01/12 09:12:02;;;;;;;;;21.67;18.00;;;;;-143.90;100.00;77521.47;4808942;29;104400;-71
2024/01/12 09:14:29;;;;;;;;;19.00;15.67;;;;;-143.90;100.00;77521.47;4810904;29;102212;-72
2024/01/12 09:16:55;;;;;;;;;19.67;14.00;;;;;-143.90;100.00;77535.94;4798035;29;102503;-72
2024/01/12 09:19:22;;;;;;;;;26.67;17.33;;;;;-143.90;100.00;77521.47;4809225;29;102415;-72
2024/01/12 09:21:49;;;;;;;;;20.00;17.00;;;;;-143.90;100.00;77509.06;4810130;29;104303;-72
2024/01/12 09:24:15;;;;;;;;;15.33;14.33;;;;;-143.90;100.00;77484.25;4810594;29;102503;-72
2024/01/12 09:26:42;;;;;;;;;20.00;16.33;;;;;-143.90;100.00;77467.69;4809716;29;101927;-71
2024/01/12 09:29:10;;;;;;;;;24.00;20.00;;;;;-143.90;100.00;77529.75;4807670;29;105255;-72
2024/01/12 09:31:36;;;;;;;;;19.00;17.33;;;;;-143.90;100.00;77533.88;4812697;29;104067;-72
2024/01/12 09:34:03;;;;;;;;;21.00;15.33;;;;;-143.90;100.00;77548.38;4813092;29;102139;-72
2024/01/12 09:36:30;;;;;;;;;18.67;18.00;;;;;-143.90;100.00;77542.16;4809619;29;102346;-72
2024/01/12 09:38:56;;;;;;;;;21.00;15.67;;;;;-143.90;100.00;77562.84;4810979;28;102695;-73
2024/01/12 09:41:45;;;;;;;;;22.67;20.67;;;;;-143.90;100.00;77533.88;4828773;28;104247;-72
2024/01/12 09:44:12;;;;;;;;;21.67;17.00;;;;;-143.90;100.00;77504.94;4829830;28;102528;-72
2024/01/12 09:46:54;;;;;;;;;19.33;16.33;;;;;-143.90;100.00;77490.44;4817189;28;103285;-71
2024/01/12 09:49:22;;;;;;;;;25.00;21.00;;;;;-143.90;100.00;77500.78;4837199;28;102508;-71
2024/01/12 09:51:49;;;;;;;;;21.00;17.33;;;;;-143.90;100.00;77457.34;4831123;28;104156;-73
2024/01/12 09:54:19;;;;;;;;;18.67;15.67;;;;;-143.90;100.00;77442.88;4810144;29;102302;-72
2024/01/12 09:56:46;;;;;;;;;25.00;18.33;;;;;-143.90;100.00;77500.78;4822099;28;102447;-73
2024/01/12 09:59:15;;;;;;;;;20.33;18.33;;;;;-143.90;100.00;77480.09;4824181;28;103664;-72
2024/01/12 10:01:42;;;;;;;;;22.00;19.00;;;;;-143.90;100.00;77463.56;4830963;28;104203;-72
2024/01/12 10:04:09;;;;;;;;;20.00;15.00;;;;;-143.90;100.00;77407.69;4831185;28;102667;-71
2024/01/12 10:06:36;;;;;;;;;17.00;11.00;;;;;-143.90;100.00;77387.00;4825303;28;103444;-72
2024/01/12 10:09:04;;;;;;;;;28.00;23.67;;;;;-143.90;100.00;77432.53;4816477;28;102557;-72
2024/01/12 10:11:31;;;;;;;;;10.33;5.00;;;;;-143.90;100.00;77449.06;4831867;28;103633;-72
2024/01/12 10:13:57;;;;;;;;;20.33;16.67;;;;;-143.90;100.00;77500.78;4827799;28;102549;-73
2024/01/12 10:16:28;;;;;;;;;22.00;18.67;;;;;-143.90;100.00;77521.47;4827151;28;102314;-72
2024/01/12 10:18:57;;;;;;;;;21.00;18.00;;;;;-143.90;100.00;77515.25;4820525;28;102605;-72
2024/01/12 10:21:25;;;;;;;;;15.67;13.67;;;;;-143.90;100.00;77511.13;4826666;28;103994;-73
2024/01/12 10:24:02;;;;;;;;;19.00;15.00;;;;;-143.90;100.00;77496.66;4826666;28;102509;-73
2024/01/12 10:26:29;;;;;;;;;19.33;15.00;;;;;-143.90;100.00;77513.19;4823630;28;102518;-73
2024/01/12 10:29:01;;;;;;;;;14.00;11.67;;;;;-143.90;100.00;77511.13;4823445;28;103431;-73
2024/01/12 10:31:28;;;;;;;;;14.33;12.00;;;;;-143.90;100.00;77473.91;4828208;28;103742;-72
2024/01/12 10:34:00;;;;;;;;;21.00;17.00;;;;;-143.90;100.00;77490.44;4832244;28;102279;-73
2024/01/12 10:36:30;;;;;;;;;14.67;11.00;;;;;-143.90;100.00;77480.09;4827050;28;102138;-73
2024/01/12 10:39:00;;;;;;;;;16.33;13.33;;;;;-143.90;100.00;77434.59;4817263;28;102415;-73
2024/01/12 10:41:27;;;;;;;;;9.67;9.00;;;;;-143.90;100.00;77428.38;4831315;28;103982;-73
2024/01/12 10:43:57;;;;;;;;;14.00;13.33;;;;;-143.90;100.00;77411.84;4836196;28;102365;-73
2024/01/12 10:46:40;;;;;;;;;13.33;9.00;;;;;-143.90;100.00;77447.00;4827998;28;102409;-74